Milltimber, United Kingdom
Current Conditions -  °F | °C
As of 8:50 PM on Tuesday 21 Oct 2014 (Local Time) from EGPD Reporting Station
Rain Showers Rain Showers  
Wind Chill: 34°   Ceiling: Unl
Heat Index: 43°   Visibility: 6mi
Dew Point: 36°   Wind: 21mph
Humidity: 76%   Direction: 290°WNW
Pressure: 29.74"   Gusts: 32mph
Location:  57.1°N, 2.24°W
Report Text: EGPD 211950Z 29018G28KT 9999 -SHRA SCT027 06/02 Q1007 TEMPO SHRA
Loading
Personal Weather Stations






























Interactive Weather Map
Tropical Storm Tracking
New forecast layout! Learn more

10-Day Weather Forecast

Advertisements
Track Severe Weather on mobile